createdAt,value
2018-09-04T00:01:47.630Z,9.93
2018-09-04T00:04:17.791Z,8.23
2018-09-04T00:06:48.017Z,9.00
2018-09-04T00:09:18.135Z,8.83
2018-09-04T00:11:49.124Z,9.23
2018-09-04T00:14:19.224Z,9.00
2018-09-04T00:16:49.445Z,8.83
2018-09-04T00:19:19.530Z,8.30
2018-09-04T00:21:50.896Z,8.63
2018-09-04T00:24:21.088Z,9.70
2018-09-04T00:26:52.083Z,8.63
2018-09-04T00:29:22.994Z,9.37
2018-09-04T00:31:54.189Z,11.10
2018-09-04T00:34:24.366Z,8.73
2018-09-04T00:36:54.316Z,8.97
2018-09-04T00:39:24.277Z,9.80
2018-09-04T00:41:54.065Z,10.13
2018-09-04T00:44:24.116Z,8.80
2018-09-04T00:46:54.057Z,8.63
2018-09-04T00:49:23.811Z,9.77
2018-09-04T00:51:53.656Z,9.00
2018-09-04T00:54:23.491Z,8.60
2018-09-04T00:56:53.485Z,9.77
2018-09-04T00:59:23.458Z,8.83
2018-09-04T01:01:53.513Z,8.20
2018-09-04T01:04:23.408Z,8.80
2018-09-04T01:06:53.408Z,8.13
2018-09-04T01:09:24.076Z,8.90
2018-09-04T01:11:53.981Z,8.63
2018-09-04T01:14:23.880Z,9.80
2018-09-04T01:16:54.036Z,10.13
2018-09-04T01:19:24.176Z,10.00
2018-09-04T01:21:54.000Z,8.47
2018-09-04T01:24:23.832Z,8.67
2018-09-04T01:26:53.731Z,8.00
2018-09-04T01:29:23.635Z,10.03
2018-09-04T01:31:53.535Z,9.33
2018-09-04T01:34:23.447Z,9.10
2018-09-04T01:36:53.854Z,9.03
2018-09-04T01:39:23.641Z,9.43
2018-09-04T01:41:53.731Z,9.50
2018-09-04T01:44:23.698Z,9.20
2018-09-04T01:46:53.665Z,10.07
2018-09-04T01:49:23.790Z,9.17
2018-09-04T01:51:53.666Z,9.20
2018-09-04T01:54:23.963Z,8.57
2018-09-04T01:56:54.040Z,8.97
2018-09-04T01:59:23.965Z,11.40
2018-09-04T02:01:53.936Z,8.70
2018-09-04T02:04:23.819Z,8.50
2018-09-04T02:06:53.744Z,8.60
2018-09-04T02:09:25.512Z,9.80
2018-09-04T02:11:56.400Z,9.20
2018-09-04T02:14:26.369Z,9.40
2018-09-04T02:16:56.128Z,8.77
2018-09-04T02:19:26.962Z,8.60
2018-09-04T02:21:56.889Z,8.57
2018-09-04T02:24:26.729Z,8.17
2018-09-04T02:26:56.722Z,10.47
2018-09-04T02:29:26.556Z,9.50
2018-09-04T02:31:56.510Z,9.70
2018-09-04T02:34:26.321Z,8.43
2018-09-04T02:36:56.347Z,8.40
2018-09-04T02:39:26.168Z,9.03
2018-09-04T02:41:56.072Z,8.80
2018-09-04T02:44:26.378Z,9.77
2018-09-04T02:46:56.344Z,8.47
2018-09-04T02:49:26.279Z,8.80
2018-09-04T02:51:56.477Z,8.10
2018-09-04T02:54:26.572Z,10.57
2018-09-04T02:56:56.549Z,8.73
2018-09-04T02:59:26.487Z,10.67
2018-09-04T03:01:56.476Z,9.33
2018-09-04T03:04:27.525Z,9.30
2018-09-04T03:07:14.031Z,9.30
2018-09-04T03:09:47.010Z,8.97
2018-09-04T03:12:18.622Z,8.80
2018-09-04T03:14:48.617Z,8.50
2018-09-04T03:17:18.506Z,9.30
2018-09-04T03:19:48.699Z,9.40
2018-09-04T03:22:18.737Z,9.17
2018-09-04T03:24:48.990Z,9.23
2018-09-04T03:27:19.079Z,8.80
2018-09-04T03:29:49.345Z,9.80
2018-09-04T03:32:19.665Z,10.53
2018-09-04T03:34:49.666Z,10.30
2018-09-04T03:37:19.870Z,11.80
2018-09-04T03:39:50.189Z,11.13
2018-09-04T03:42:20.611Z,12.60
2018-09-04T03:44:51.679Z,12.10
2018-09-04T03:47:22.839Z,11.43
2018-09-04T03:49:53.255Z,11.43
2018-09-04T03:52:23.509Z,8.90
2018-09-04T03:54:53.494Z,8.90
2018-09-04T03:57:23.708Z,9.77
2018-09-04T03:59:53.919Z,7.77
2018-09-04T04:02:23.955Z,10.10
2018-09-04T04:04:54.081Z,9.97
2018-09-04T04:07:24.324Z,10.10
2018-09-04T04:09:54.504Z,10.80
2018-09-04T04:12:24.603Z,9.10
2018-09-04T04:14:54.653Z,9.67
2018-09-04T04:17:24.907Z,10.67
2018-09-04T04:19:54.998Z,11.13
2018-09-04T04:22:25.154Z,12.03
2018-09-04T04:24:55.146Z,11.73
2018-09-04T04:27:25.228Z,12.50
2018-09-04T04:29:55.417Z,11.20
2018-09-04T04:32:27.132Z,9.63
2018-09-04T04:34:57.411Z,10.57
2018-09-04T04:37:28.336Z,10.40
2018-09-04T04:39:58.716Z,11.10
2018-09-04T04:42:28.776Z,11.83
2018-09-04T04:44:59.262Z,11.10
2018-09-04T04:47:34.332Z,10.53
2018-09-04T04:50:04.433Z,11.60
2018-09-04T04:52:34.473Z,12.90
2018-09-04T04:55:04.771Z,12.00
2018-09-04T04:57:34.988Z,12.53
2018-09-04T05:00:05.400Z,12.50
2018-09-04T05:02:35.516Z,12.10
2018-09-04T05:05:05.809Z,11.13
2018-09-04T05:07:36.325Z,11.20
2018-09-04T05:10:06.607Z,10.87
2018-09-04T05:12:36.931Z,10.10
2018-09-04T05:15:07.450Z,9.20
2018-09-04T05:17:37.656Z,10.40
2018-09-04T05:20:09.851Z,11.47
2018-09-04T05:22:40.049Z,12.70
2018-09-04T05:25:10.010Z,12.90
2018-09-04T05:27:40.315Z,11.73
2018-09-04T05:30:11.005Z,12.40
2018-09-04T05:32:45.649Z,12.70
2018-09-04T05:35:17.424Z,11.93
2018-09-04T05:37:49.755Z,12.70
2018-09-04T05:40:19.945Z,12.90
2018-09-04T05:42:54.409Z,13.23
2018-09-04T05:45:27.214Z,12.30
2018-09-04T05:48:05.944Z,11.23
2018-09-04T05:50:36.316Z,11.53
2018-09-04T05:53:06.717Z,9.93
2018-09-04T05:55:37.267Z,10.60
2018-09-04T05:58:07.851Z,9.20
2018-09-04T06:00:48.811Z,10.23
2018-09-04T06:03:19.137Z,9.70
2018-09-04T06:05:49.308Z,10.97
2018-09-04T06:08:20.110Z,11.50
2018-09-04T06:10:50.519Z,14.20
2018-09-04T06:13:22.377Z,12.67
2018-09-04T06:15:52.582Z,12.93
2018-09-04T06:18:23.941Z,12.10
2018-09-04T06:20:54.332Z,12.73
2018-09-04T06:23:24.044Z,10.70
2018-09-04T06:25:53.837Z,13.23
2018-09-04T06:28:25.001Z,12.83
2018-09-04T06:30:55.395Z,11.07
2018-09-04T06:33:25.571Z,12.80
2018-09-04T06:35:56.054Z,11.90
2018-09-04T06:38:26.493Z,10.40
2018-09-04T06:40:56.871Z,10.40
2018-09-04T06:43:26.956Z,11.20
2018-09-04T06:45:57.107Z,12.40
2018-09-04T06:48:27.415Z,12.67
2018-09-04T06:50:58.713Z,11.30
2018-09-04T06:53:30.820Z,11.43
2018-09-04T06:56:01.346Z,13.53
2018-09-04T06:58:31.406Z,13.33
2018-09-04T07:01:01.520Z,12.60
2018-09-04T07:03:32.138Z,14.20
2018-09-04T07:06:02.400Z,14.87
2018-09-04T07:08:33.300Z,14.77
2018-09-04T07:11:03.593Z,17.23
2018-09-04T07:13:33.485Z,14.80
2018-09-04T07:16:04.793Z,13.80
2018-09-04T07:18:35.311Z,13.10
2018-09-04T07:21:05.751Z,12.73
2018-09-04T07:23:36.459Z,12.67
2018-09-04T07:26:07.008Z,12.63
2018-09-04T07:28:37.435Z,11.93
2018-09-04T07:31:08.298Z,13.23
2018-09-04T07:33:38.551Z,13.00
2018-09-04T07:36:08.928Z,12.77
2018-09-04T07:38:38.813Z,12.20
2018-09-04T07:41:08.913Z,12.70
2018-09-04T07:43:41.019Z,12.13
2018-09-04T07:46:11.509Z,11.67
2018-09-04T07:48:41.489Z,12.43
2018-09-04T07:51:11.804Z,10.27
2018-09-04T07:53:42.878Z,12.67
2018-09-04T07:56:13.744Z,11.50
2018-09-04T07:58:43.643Z,11.50
2018-09-04T08:01:13.328Z,13.17
2018-09-04T08:03:43.058Z,13.40
2018-09-04T08:06:12.873Z,12.10
2018-09-04T08:08:42.708Z,12.70
2018-09-04T08:11:12.631Z,12.27
2018-09-04T08:13:42.403Z,12.80
2018-09-04T08:16:12.196Z,12.30
2018-09-04T08:18:42.001Z,11.73
2018-09-04T08:21:11.734Z,10.83
2018-09-04T08:23:41.539Z,11.20
2018-09-04T08:26:12.437Z,11.03
2018-09-04T08:28:43.376Z,10.20
2018-09-04T08:31:13.084Z,11.90
2018-09-04T08:33:43.425Z,10.73
2018-09-04T08:36:13.295Z,11.93
2018-09-04T08:38:48.231Z,10.70
2018-09-04T08:41:17.917Z,9.83
2018-09-04T08:43:50.021Z,10.23
2018-09-04T08:46:20.337Z,10.90
2018-09-04T08:48:50.628Z,11.20
2018-09-04T08:51:20.496Z,11.00
2018-09-04T08:53:50.437Z,10.40
2018-09-04T08:56:20.480Z,10.40
2018-09-04T08:58:50.656Z,10.73
2018-09-04T09:01:21.451Z,10.30
2018-09-04T09:03:51.617Z,11.53
2018-09-04T09:06:21.639Z,9.70
2018-09-04T09:08:51.300Z,9.60
2018-09-04T09:11:21.255Z,9.67
2018-09-04T09:13:51.360Z,10.60
2018-09-04T09:16:21.667Z,10.57
2018-09-04T09:18:51.843Z,10.13
2018-09-04T09:21:21.925Z,10.33
2018-09-04T09:23:51.766Z,9.67
2018-09-04T09:26:21.744Z,8.93
2018-09-04T09:28:53.419Z,10.63
2018-09-04T09:31:23.369Z,9.70
2018-09-04T09:33:53.869Z,8.60
2018-09-04T09:36:23.701Z,10.77
2018-09-04T09:38:53.547Z,8.50
2018-09-04T09:41:23.676Z,10.13
2018-09-04T09:43:53.545Z,9.20
2018-09-04T09:46:23.060Z,10.40
2018-09-04T09:48:53.523Z,9.77
2018-09-04T09:51:23.853Z,10.10
2018-09-04T09:53:53.558Z,10.43
2018-09-04T09:56:23.603Z,10.63
2018-09-04T09:58:53.376Z,10.80
2018-09-04T10:01:27.963Z,10.17
2018-09-04T10:04:04.360Z,10.10
2018-09-04T10:06:34.157Z,9.60
2018-09-04T10:09:05.657Z,8.80
2018-09-04T10:11:35.642Z,9.23
2018-09-04T10:14:05.622Z,9.70
2018-09-04T10:16:35.592Z,9.00
2018-09-04T10:19:05.907Z,9.40
2018-09-04T10:21:35.683Z,10.07
2018-09-04T10:24:05.668Z,8.47
2018-09-04T10:26:36.148Z,10.60
2018-09-04T10:29:05.945Z,9.23
2018-09-04T10:31:35.711Z,10.67
2018-09-04T10:34:06.620Z,10.27
2018-09-04T10:36:36.431Z,9.57
2018-09-04T10:40:11.511Z,9.30
2018-09-04T10:42:41.451Z,10.03
2018-09-04T10:45:16.249Z,9.43
2018-09-04T10:47:46.963Z,9.80
2018-09-04T10:50:17.009Z,10.07
2018-09-04T10:52:46.951Z,9.23
2018-09-04T10:55:16.957Z,8.40
2018-09-04T10:57:46.879Z,9.10
2018-09-04T11:00:17.820Z,9.37
2018-09-04T11:02:48.106Z,8.67
2018-09-04T11:05:18.096Z,8.67
2018-09-04T11:07:47.941Z,8.70
2018-09-04T11:10:17.867Z,8.60
2018-09-04T11:12:47.694Z,8.60
2018-09-04T11:15:21.393Z,9.20
2018-09-04T11:17:51.428Z,8.30
2018-09-04T11:20:22.953Z,9.57
2018-09-04T11:22:52.794Z,9.53
2018-09-04T11:25:23.720Z,9.17
2018-09-04T11:27:53.695Z,8.80
2018-09-04T11:30:24.476Z,9.10
2018-09-04T11:32:55.209Z,8.57
2018-09-04T11:35:27.480Z,8.13
2018-09-04T11:37:57.309Z,7.73
2018-09-04T11:40:29.821Z,7.87
2018-09-04T11:43:00.007Z,9.00
2018-09-04T11:45:30.097Z,9.47
2018-09-04T11:48:00.449Z,9.20
2018-09-04T11:50:30.819Z,8.17
2018-09-04T11:53:00.687Z,9.40
2018-09-04T12:16:01.146Z,9.00
2018-09-04T12:18:31.818Z,8.60
2018-09-04T12:21:06.148Z,8.33
2018-09-04T12:23:36.751Z,8.80
2018-09-04T12:26:07.822Z,8.90
2018-09-04T12:28:38.506Z,8.37
2018-09-04T12:31:09.323Z,9.20
2018-09-04T12:33:39.446Z,9.60
2018-09-04T12:36:09.882Z,9.70
2018-09-04T12:38:42.681Z,9.20
2018-09-04T12:41:15.016Z,8.80
2018-09-04T12:43:46.520Z,7.60
2018-09-04T12:46:17.052Z,8.80
2018-09-04T12:48:51.930Z,9.57
2018-09-04T12:51:21.882Z,10.00
2018-09-04T12:53:52.219Z,9.70
2018-09-04T12:56:22.060Z,8.80
2018-09-04T12:58:52.000Z,9.57
2018-09-04T13:01:21.996Z,10.00
2018-09-04T13:03:51.801Z,8.90
2018-09-04T13:06:21.880Z,9.67
2018-09-04T13:08:52.645Z,8.30
2018-09-04T13:11:22.553Z,8.63
2018-09-04T13:13:52.665Z,8.87
2018-09-04T13:16:22.294Z,9.40
2018-09-04T13:18:52.273Z,9.50
2018-09-04T13:21:23.752Z,8.63
2018-09-04T13:23:53.649Z,8.97
2018-09-04T13:26:23.413Z,9.33
2018-09-04T13:28:54.299Z,8.47
2018-09-04T13:31:24.133Z,9.20
2018-09-04T13:33:54.830Z,8.50
2018-09-04T13:36:24.719Z,9.57
2018-09-04T13:38:54.584Z,8.77
2018-09-04T13:41:24.776Z,9.07
2018-09-04T13:43:56.022Z,8.27
2018-09-04T13:46:26.939Z,9.60
2018-09-04T13:48:57.668Z,9.07
2018-09-04T13:51:27.542Z,9.03
2018-09-04T13:53:58.123Z,9.87
2018-09-04T13:56:28.043Z,8.50
2018-09-04T13:58:57.973Z,9.87
2018-09-04T14:01:29.067Z,8.90
2018-09-04T14:03:58.918Z,9.33
2018-09-04T14:06:28.863Z,9.23
2018-09-04T14:08:58.831Z,9.67
2018-09-04T14:11:28.662Z,8.73
2018-09-04T14:14:00.403Z,9.53
2018-09-04T14:16:43.149Z,8.83
2018-09-04T14:19:01.370Z,10.00
2018-09-04T14:21:31.315Z,8.97
2018-09-04T14:24:01.311Z,9.70
2018-09-04T14:26:31.499Z,10.13
2018-09-04T14:29:08.261Z,9.37
2018-09-04T14:31:32.271Z,10.80
2018-09-04T14:34:02.260Z,13.90
2018-09-04T14:36:32.308Z,11.60
2018-09-04T14:39:02.143Z,9.50
2018-09-04T14:41:33.126Z,9.70
2018-09-04T14:44:06.309Z,9.60
2018-09-04T14:46:37.589Z,9.10
2018-09-04T14:49:08.903Z,9.40
2018-09-04T14:51:39.019Z,8.50
2018-09-04T14:54:08.919Z,9.70
2018-09-04T14:56:41.315Z,9.47
2018-09-04T14:59:11.234Z,8.23
2018-09-04T15:01:44.364Z,9.30
2018-09-04T15:04:14.622Z,9.17
2018-09-04T15:06:44.670Z,9.50
2018-09-04T15:09:14.509Z,9.33
2018-09-04T15:11:44.740Z,9.40
2018-09-04T15:14:14.488Z,11.27
2018-09-04T15:16:44.284Z,21.57
2018-09-04T15:19:14.110Z,10.80
2018-09-04T15:21:44.013Z,10.00
2018-09-04T15:24:13.907Z,8.87
2018-09-04T15:26:43.721Z,10.67
2018-09-04T15:29:13.588Z,9.33
2018-09-04T15:31:43.448Z,9.10
2018-09-04T15:34:13.884Z,9.60
2018-09-04T15:36:43.818Z,9.33
2018-09-04T15:39:13.687Z,8.60
2018-09-04T15:41:43.639Z,8.70
2018-09-04T15:44:13.711Z,9.13
2018-09-04T15:46:44.118Z,9.13
2018-09-04T15:49:19.691Z,9.00
2018-09-04T15:51:49.627Z,9.70
2018-09-04T15:54:24.977Z,9.27
2018-09-04T15:56:54.916Z,9.73
2018-09-04T15:59:25.873Z,8.70
2018-09-04T16:01:55.872Z,9.10
2018-09-04T16:04:26.460Z,9.50
2018-09-04T16:06:56.361Z,8.90
2018-09-04T16:09:26.549Z,9.30
2018-09-04T16:11:56.621Z,8.83
2018-09-04T16:14:26.485Z,9.00
2018-09-04T16:16:56.276Z,8.57
2018-09-04T16:19:27.209Z,8.77
2018-09-04T16:21:57.099Z,8.77
2018-09-04T16:24:26.923Z,8.07
2018-09-04T16:26:56.685Z,9.80
2018-09-04T16:29:26.780Z,10.00
2018-09-04T16:31:57.743Z,8.23
2018-09-04T16:34:29.640Z,9.23
2018-09-04T16:36:59.721Z,10.10
2018-09-04T16:39:29.843Z,9.10
2018-09-04T16:41:59.853Z,9.60
2018-09-04T16:44:31.055Z,9.17
2018-09-04T16:47:01.394Z,9.40
2018-09-04T16:49:31.305Z,10.43
2018-09-04T16:52:02.570Z,10.00
2018-09-04T16:54:32.974Z,9.90
2018-09-04T16:57:02.858Z,11.10
2018-09-04T16:59:33.899Z,11.17
2018-09-04T17:02:04.154Z,11.63
2018-09-04T17:04:33.845Z,16.60
2018-09-04T17:07:07.673Z,26.53
2018-09-04T17:09:38.925Z,26.43
2018-09-04T17:12:09.789Z,23.70
2018-09-04T17:14:39.872Z,21.73
2018-09-04T17:17:10.883Z,21.47
2018-09-04T17:19:41.953Z,18.83
2018-09-04T17:22:12.599Z,16.67
2018-09-04T17:24:42.356Z,17.33
2018-09-04T17:27:12.404Z,15.73
2018-09-04T17:29:42.204Z,19.13
2018-09-04T17:32:14.496Z,18.27
2018-09-04T17:34:46.888Z,20.00
2018-09-04T17:37:20.660Z,21.00
2018-09-04T17:39:52.264Z,21.37
2018-09-04T17:42:23.636Z,23.63
2018-09-04T17:44:58.442Z,19.53
2018-09-04T17:47:32.160Z,18.93
2018-09-04T17:52:52.551Z,15.80
2018-09-04T17:55:27.411Z,15.97
2018-09-04T17:58:02.194Z,16.80
2018-09-04T18:00:33.435Z,16.17
2018-09-04T18:03:06.082Z,15.37
2018-09-04T18:05:42.730Z,13.87
2018-09-04T18:08:18.065Z,13.30
2018-09-04T18:10:55.512Z,12.07
2018-09-04T18:13:32.414Z,12.27
2018-09-04T18:16:05.019Z,12.70
2018-09-04T18:18:35.284Z,12.30
2018-09-04T18:21:05.529Z,13.00
2018-09-04T18:23:35.847Z,12.20
2018-09-04T18:26:08.953Z,12.70
2018-09-04T18:28:40.444Z,12.70
2018-09-04T18:31:11.590Z,12.23
2018-09-04T18:33:42.002Z,12.03
2018-09-04T18:36:13.270Z,12.50
2018-09-04T18:38:43.594Z,11.97
2018-09-04T18:41:13.718Z,11.77
2018-09-04T18:43:43.746Z,11.87
2018-09-04T18:46:14.442Z,12.00
2018-09-04T18:48:45.146Z,11.53
2018-09-04T18:51:15.080Z,12.20
2018-09-04T18:53:45.494Z,11.30
2018-09-04T18:56:16.383Z,11.50
2018-09-04T18:58:46.456Z,10.30
2018-09-04T19:01:16.576Z,11.37
2018-09-04T19:03:48.307Z,10.47
2018-09-04T19:06:18.275Z,11.23
2018-09-04T19:08:51.038Z,10.93
2018-09-04T19:11:23.061Z,9.83
2018-09-04T19:13:54.856Z,10.97
2018-09-04T19:16:27.138Z,10.40
2018-09-04T19:19:15.065Z,11.60
2018-09-04T19:21:45.663Z,10.90
2018-09-04T19:24:18.133Z,10.80
2018-09-04T19:27:06.931Z,10.60
2018-09-04T19:29:37.701Z,10.90
2018-09-04T19:32:13.437Z,10.50
2018-09-04T19:34:43.535Z,11.70
2018-09-04T19:37:15.092Z,11.30
2018-09-04T19:39:46.028Z,12.43
2018-09-04T19:42:15.789Z,10.93
2018-09-04T19:44:45.800Z,10.67
2018-09-04T19:47:15.810Z,10.50
2018-09-04T19:49:45.781Z,11.07
2018-09-04T19:52:15.655Z,10.60
2018-09-04T19:54:45.940Z,10.30
2018-09-04T19:57:15.784Z,10.83
2018-09-04T19:59:45.626Z,9.60
2018-09-04T20:02:15.809Z,9.03
2018-09-04T20:04:45.480Z,8.30
2018-09-04T20:07:15.370Z,9.60
2018-09-04T20:09:45.241Z,10.07
2018-09-04T20:12:16.378Z,9.57
2018-09-04T20:14:46.497Z,9.40
2018-09-04T20:17:16.603Z,8.90
2018-09-04T20:19:46.438Z,9.70
2018-09-04T20:22:16.539Z,9.70
2018-09-04T20:24:46.357Z,9.43
2018-09-04T20:27:16.181Z,7.93
2018-09-04T20:29:46.211Z,8.97
2018-09-04T20:32:16.093Z,9.23
2018-09-04T20:34:45.973Z,8.30
2018-09-04T20:37:15.753Z,7.97
2018-09-04T20:39:45.682Z,9.33
2018-09-04T20:42:16.355Z,8.47
2018-09-04T20:44:46.410Z,8.67
2018-09-04T20:47:17.212Z,8.70
2018-09-04T20:49:48.008Z,8.03
2018-09-04T20:52:18.051Z,8.90
2018-09-04T20:54:47.922Z,7.73
2018-09-04T20:57:25.002Z,8.30
2018-09-04T21:00:08.021Z,8.80
2018-09-04T21:02:48.658Z,7.97
2018-09-04T21:05:29.485Z,7.30
2018-09-04T21:08:17.266Z,7.50
2018-09-04T21:10:48.322Z,7.87
2018-09-04T21:13:18.136Z,8.30
2018-09-04T21:15:48.122Z,6.90
2018-09-04T21:18:20.552Z,7.33
2018-09-04T21:20:50.390Z,7.27
2018-09-04T21:23:20.572Z,8.27
2018-09-04T21:25:50.444Z,7.80
2018-09-04T21:28:20.675Z,7.13
2018-09-04T21:30:50.462Z,7.63
2018-09-04T21:33:20.497Z,7.20
2018-09-04T21:35:51.300Z,7.83
2018-09-04T21:38:22.472Z,7.67
2018-09-04T21:40:52.244Z,8.17
2018-09-04T21:43:22.223Z,7.87
2018-09-04T21:45:53.253Z,7.37
2018-09-04T21:48:23.149Z,7.03
2018-09-04T21:50:52.873Z,7.60
2018-09-04T21:53:22.595Z,8.10
2018-09-04T21:55:52.475Z,7.67
2018-09-04T21:58:22.114Z,6.90
2018-09-04T22:00:52.242Z,8.03
2018-09-04T22:03:22.051Z,8.47
2018-09-04T22:05:51.890Z,7.77
2018-09-04T22:08:21.670Z,8.27
2018-09-04T22:10:51.605Z,9.53
2018-09-04T22:13:21.401Z,8.30
2018-09-04T22:15:51.260Z,7.97
2018-09-04T22:18:21.022Z,8.00
2018-09-04T22:20:50.856Z,7.67
2018-09-04T22:23:20.639Z,7.07
2018-09-04T22:25:54.973Z,7.00
2018-09-04T22:28:24.662Z,7.37
2018-09-04T22:30:54.598Z,7.60
2018-09-04T22:33:24.342Z,8.33
2018-09-04T22:35:54.137Z,8.37
2018-09-04T22:38:23.937Z,7.30
2018-09-04T22:40:53.753Z,7.60
2018-09-04T22:43:23.677Z,7.10
2018-09-04T22:45:53.766Z,7.57
2018-09-04T22:48:23.543Z,7.90
2018-09-04T22:50:58.208Z,8.00
2018-09-04T22:53:28.058Z,7.20
2018-09-04T22:55:58.153Z,7.33
